sensor_id;sensor_type;location;lat;lon;timestamp;P1;durP1;ratioP1;P2;durP2;ratioP2
74074;SDS011;62428;51.412;5.432;2023-04-29T00:02:24;52.10;;;22.30;;
74074;SDS011;62428;51.412;5.432;2023-04-29T00:04:50;57.28;;;23.58;;
74074;SDS011;62428;51.412;5.432;2023-04-29T00:07:15;58.28;;;24.05;;
74074;SDS011;62428;51.412;5.432;2023-04-29T00:09:40;54.13;;;22.87;;
74074;SDS011;62428;51.412;5.432;2023-04-29T00:12:06;57.90;;;24.33;;
74074;SDS011;62428;51.412;5.432;2023-04-29T00:14:31;52.63;;;21.63;;
74074;SDS011;62428;51.412;5.432;2023-04-29T00:16:57;48.47;;;20.93;;
74074;SDS011;62428;51.412;5.432;2023-04-29T00:19:22;54.47;;;22.70;;
74074;SDS011;62428;51.412;5.432;2023-04-29T00:21:47;50.58;;;23.38;;
74074;SDS011;62428;51.412;5.432;2023-04-29T00:24:13;56.00;;;22.53;;
74074;SDS011;62428;51.412;5.432;2023-04-29T00:26:38;53.07;;;22.50;;
74074;SDS011;62428;51.412;5.432;2023-04-29T00:29:05;53.88;;;21.70;;
74074;SDS011;62428;51.412;5.432;2023-04-29T00:31:30;45.93;;;21.50;;
74074;SDS011;62428;51.412;5.432;2023-04-29T00:33:56;53.42;;;20.98;;
74074;SDS011;62428;51.412;5.432;2023-04-29T00:36:22;55.00;;;21.27;;
74074;SDS011;62428;51.412;5.432;2023-04-29T00:38:47;57.30;;;21.73;;
74074;SDS011;62428;51.412;5.432;2023-04-29T00:41:13;53.78;;;20.77;;
74074;SDS011;62428;51.412;5.432;2023-04-29T00:43:38;51.55;;;20.42;;
74074;SDS011;62428;51.412;5.432;2023-04-29T00:46:04;55.55;;;21.30;;
74074;SDS011;62428;51.412;5.432;2023-04-29T00:48:30;51.37;;;20.30;;
74074;SDS011;62428;51.412;5.432;2023-04-29T00:50:56;49.85;;;18.48;;
74074;SDS011;62428;51.412;5.432;2023-04-29T00:53:22;44.90;;;19.90;;
74074;SDS011;62428;51.412;5.432;2023-04-29T00:55:47;42.20;;;18.40;;
74074;SDS011;62428;51.412;5.432;2023-04-29T00:58:16;47.20;;;19.63;;
74074;SDS011;62428;51.412;5.432;2023-04-29T01:00:42;43.65;;;18.52;;
74074;SDS011;62428;51.412;5.432;2023-04-29T01:03:08;40.70;;;17.47;;
74074;SDS011;62428;51.412;5.432;2023-04-29T01:05:34;39.60;;;17.45;;
74074;SDS011;62428;51.412;5.432;2023-04-29T01:10:52;40.53;;;17.17;;
74074;SDS011;62428;51.412;5.432;2023-04-29T01:16:01;31.55;;;14.93;;
74074;SDS011;62428;51.412;5.432;2023-04-29T01:18:30;35.08;;;15.70;;
74074;SDS011;62428;51.412;5.432;2023-04-29T01:20:59;33.05;;;15.30;;
74074;SDS011;62428;51.412;5.432;2023-04-29T01:23:25;30.95;;;14.95;;
74074;SDS011;62428;51.412;5.432;2023-04-29T01:25:51;39.53;;;15.97;;
74074;SDS011;62428;51.412;5.432;2023-04-29T01:28:24;32.28;;;14.23;;
74074;SDS011;62428;51.412;5.432;2023-04-29T01:36:52;29.45;;;13.32;;
74074;SDS011;62428;51.412;5.432;2023-04-29T01:45:19;25.52;;;13.60;;
74074;SDS011;62428;51.412;5.432;2023-04-29T01:47:47;31.35;;;13.20;;
74074;SDS011;62428;51.412;5.432;2023-04-29T01:50:16;26.83;;;13.38;;
74074;SDS011;62428;51.412;5.432;2023-04-29T01:52:42;26.90;;;13.80;;
74074;SDS011;62428;51.412;5.432;2023-04-29T01:55:07;29.07;;;14.17;;
74074;SDS011;62428;51.412;5.432;2023-04-29T01:57:33;27.92;;;13.48;;
74074;SDS011;62428;51.412;5.432;2023-04-29T01:59:58;32.73;;;14.17;;
74074;SDS011;62428;51.412;5.432;2023-04-29T02:02:23;30.50;;;14.57;;
74074;SDS011;62428;51.412;5.432;2023-04-29T02:04:49;34.43;;;14.80;;
74074;SDS011;62428;51.412;5.432;2023-04-29T02:07:15;32.88;;;14.98;;
74074;SDS011;62428;51.412;5.432;2023-04-29T02:09:40;34.65;;;15.52;;
74074;SDS011;62428;51.412;5.432;2023-04-29T02:12:06;36.23;;;15.80;;
74074;SDS011;62428;51.412;5.432;2023-04-29T02:14:31;39.03;;;15.13;;
74074;SDS011;62428;51.412;5.432;2023-04-29T02:16:58;34.72;;;15.80;;
74074;SDS011;62428;51.412;5.432;2023-04-29T02:19:24;35.13;;;15.48;;
74074;SDS011;62428;51.412;5.432;2023-04-29T02:21:49;33.50;;;15.63;;
74074;SDS011;62428;51.412;5.432;2023-04-29T02:24:14;39.40;;;16.57;;
74074;SDS011;62428;51.412;5.432;2023-04-29T02:26:40;36.38;;;15.60;;
74074;SDS011;62428;51.412;5.432;2023-04-29T02:29:05;39.43;;;15.90;;
74074;SDS011;62428;51.412;5.432;2023-04-29T02:31:30;38.60;;;16.20;;
74074;SDS011;62428;51.412;5.432;2023-04-29T02:33:56;40.30;;;16.83;;
74074;SDS011;62428;51.412;5.432;2023-04-29T02:36:21;43.30;;;17.50;;
74074;SDS011;62428;51.412;5.432;2023-04-29T02:38:48;34.97;;;15.70;;
74074;SDS011;62428;51.412;5.432;2023-04-29T02:41:15;41.78;;;18.77;;
74074;SDS011;62428;51.412;5.432;2023-04-29T02:43:43;43.60;;;18.95;;
74074;SDS011;62428;51.412;5.432;2023-04-29T02:46:09;42.27;;;18.23;;
74074;SDS011;62428;51.412;5.432;2023-04-29T02:48:34;40.28;;;16.27;;
74074;SDS011;62428;51.412;5.432;2023-04-29T02:51:00;48.50;;;18.23;;
74074;SDS011;62428;51.412;5.432;2023-04-29T02:53:26;41.75;;;18.00;;
74074;SDS011;62428;51.412;5.432;2023-04-29T02:55:51;43.40;;;17.07;;
74074;SDS011;62428;51.412;5.432;2023-04-29T02:58:16;43.77;;;18.90;;
74074;SDS011;62428;51.412;5.432;2023-04-29T03:00:42;43.37;;;19.00;;
74074;SDS011;62428;51.412;5.432;2023-04-29T03:03:07;46.30;;;19.33;;
74074;SDS011;62428;51.412;5.432;2023-04-29T03:05:33;45.55;;;17.67;;
74074;SDS011;62428;51.412;5.432;2023-04-29T03:07:59;47.37;;;19.10;;
74074;SDS011;62428;51.412;5.432;2023-04-29T03:10:25;46.75;;;18.95;;
74074;SDS011;62428;51.412;5.432;2023-04-29T03:12:50;47.23;;;19.57;;
74074;SDS011;62428;51.412;5.432;2023-04-29T03:15:15;46.77;;;19.73;;
74074;SDS011;62428;51.412;5.432;2023-04-29T03:17:41;45.25;;;18.27;;
74074;SDS011;62428;51.412;5.432;2023-04-29T03:20:06;46.67;;;19.17;;
74074;SDS011;62428;51.412;5.432;2023-04-29T03:22:34;50.28;;;19.17;;
74074;SDS011;62428;51.412;5.432;2023-04-29T03:25:00;43.80;;;18.73;;
74074;SDS011;62428;51.412;5.432;2023-04-29T03:27:25;42.53;;;17.93;;
74074;SDS011;62428;51.412;5.432;2023-04-29T03:29:50;42.87;;;17.63;;
74074;SDS011;62428;51.412;5.432;2023-04-29T03:32:16;47.40;;;19.90;;
74074;SDS011;62428;51.412;5.432;2023-04-29T03:34:41;39.80;;;18.00;;
74074;SDS011;62428;51.412;5.432;2023-04-29T03:37:06;45.70;;;18.20;;
74074;SDS011;62428;51.412;5.432;2023-04-29T03:39:32;45.27;;;18.43;;
74074;SDS011;62428;51.412;5.432;2023-04-29T03:41:57;45.67;;;18.20;;
74074;SDS011;62428;51.412;5.432;2023-04-29T03:44:26;39.63;;;17.50;;
74074;SDS011;62428;51.412;5.432;2023-04-29T03:46:53;46.80;;;17.88;;
74074;SDS011;62428;51.412;5.432;2023-04-29T03:49:18;43.23;;;17.53;;
74074;SDS011;62428;51.412;5.432;2023-04-29T03:51:44;42.50;;;17.60;;
74074;SDS011;62428;51.412;5.432;2023-04-29T03:54:09;39.05;;;17.30;;
74074;SDS011;62428;51.412;5.432;2023-04-29T03:56:36;42.20;;;16.27;;
74074;SDS011;62428;51.412;5.432;2023-04-29T03:59:01;38.88;;;16.50;;
74074;SDS011;62428;51.412;5.432;2023-04-29T04:01:26;40.90;;;17.17;;
74074;SDS011;62428;51.412;5.432;2023-04-29T04:03:51;40.37;;;16.70;;
74074;SDS011;62428;51.412;5.432;2023-04-29T04:06:17;39.87;;;16.50;;
74074;SDS011;62428;51.412;5.432;2023-04-29T04:08:42;36.87;;;16.20;;
74074;SDS011;62428;51.412;5.432;2023-04-29T04:11:08;45.43;;;17.73;;
74074;SDS011;62428;51.412;5.432;2023-04-29T04:13:33;38.92;;;16.23;;
74074;SDS011;62428;51.412;5.432;2023-04-29T04:15:59;45.03;;;17.17;;
74074;SDS011;62428;51.412;5.432;2023-04-29T04:18:25;46.27;;;17.27;;
74074;SDS011;62428;51.412;5.432;2023-04-29T04:20:50;38.85;;;16.17;;
74074;SDS011;62428;51.412;5.432;2023-04-29T04:23:15;40.57;;;16.70;;
74074;SDS011;62428;51.412;5.432;2023-04-29T04:25:47;38.73;;;16.13;;
74074;SDS011;62428;51.412;5.432;2023-04-29T04:28:13;42.20;;;17.55;;
74074;SDS011;62428;51.412;5.432;2023-04-29T04:30:38;38.57;;;16.13;;
74074;SDS011;62428;51.412;5.432;2023-04-29T04:33:04;40.05;;;15.85;;
74074;SDS011;62428;51.412;5.432;2023-04-29T04:35:29;36.72;;;16.02;;
74074;SDS011;62428;51.412;5.432;2023-04-29T04:37:55;41.03;;;17.50;;
74074;SDS011;62428;51.412;5.432;2023-04-29T04:40:21;38.70;;;16.20;;
74074;SDS011;62428;51.412;5.432;2023-04-29T04:42:46;36.28;;;15.25;;
74074;SDS011;62428;51.412;5.432;2023-04-29T04:45:12;38.87;;;15.70;;
74074;SDS011;62428;51.412;5.432;2023-04-29T04:47:39;39.85;;;16.15;;
74074;SDS011;62428;51.412;5.432;2023-04-29T04:50:05;38.78;;;16.88;;
74074;SDS011;62428;51.412;5.432;2023-04-29T04:52:31;36.53;;;15.77;;
74074;SDS011;62428;51.412;5.432;2023-04-29T04:54:56;36.65;;;16.23;;
74074;SDS011;62428;51.412;5.432;2023-04-29T04:57:22;35.93;;;15.03;;
74074;SDS011;62428;51.412;5.432;2023-04-29T04:59:47;36.53;;;15.77;;
74074;SDS011;62428;51.412;5.432;2023-04-29T05:02:12;40.07;;;15.90;;
74074;SDS011;62428;51.412;5.432;2023-04-29T05:04:38;39.10;;;15.50;;
74074;SDS011;62428;51.412;5.432;2023-04-29T05:07:03;38.20;;;16.53;;
74074;SDS011;62428;51.412;5.432;2023-04-29T05:09:28;35.63;;;14.97;;
74074;SDS011;62428;51.412;5.432;2023-04-29T05:11:54;35.22;;;14.95;;
74074;SDS011;62428;51.412;5.432;2023-04-29T05:14:20;38.53;;;15.75;;
74074;SDS011;62428;51.412;5.432;2023-04-29T05:16:45;33.27;;;15.83;;
74074;SDS011;62428;51.412;5.432;2023-04-29T05:19:10;35.67;;;15.53;;
74074;SDS011;62428;51.412;5.432;2023-04-29T05:21:36;40.20;;;16.25;;
74074;SDS011;62428;51.412;5.432;2023-04-29T05:24:02;36.77;;;15.43;;
74074;SDS011;62428;51.412;5.432;2023-04-29T05:26:27;37.65;;;15.55;;
74074;SDS011;62428;51.412;5.432;2023-04-29T05:28:53;37.90;;;14.70;;
74074;SDS011;62428;51.412;5.432;2023-04-29T05:31:19;38.22;;;15.15;;
74074;SDS011;62428;51.412;5.432;2023-04-29T05:33:45;35.30;;;14.93;;
74074;SDS011;62428;51.412;5.432;2023-04-29T05:36:10;36.77;;;15.17;;
74074;SDS011;62428;51.412;5.432;2023-04-29T05:38:35;32.50;;;14.80;;
74074;SDS011;62428;51.412;5.432;2023-04-29T05:41:01;39.17;;;15.13;;
74074;SDS011;62428;51.412;5.432;2023-04-29T05:43:27;32.42;;;14.45;;
74074;SDS011;62428;51.412;5.432;2023-04-29T05:45:53;33.60;;;14.40;;
74074;SDS011;62428;51.412;5.432;2023-04-29T05:48:18;33.42;;;15.27;;
74074;SDS011;62428;51.412;5.432;2023-04-29T05:50:43;32.00;;;14.67;;
74074;SDS011;62428;51.412;5.432;2023-04-29T05:53:09;35.07;;;15.50;;
74074;SDS011;62428;51.412;5.432;2023-04-29T05:55:35;31.77;;;14.35;;
74074;SDS011;62428;51.412;5.432;2023-04-29T05:58:00;31.87;;;14.97;;
74074;SDS011;62428;51.412;5.432;2023-04-29T06:00:26;35.90;;;14.90;;
74074;SDS011;62428;51.412;5.432;2023-04-29T06:02:51;34.90;;;15.10;;
74074;SDS011;62428;51.412;5.432;2023-04-29T06:05:16;32.07;;;14.90;;
74074;SDS011;62428;51.412;5.432;2023-04-29T06:07:42;28.15;;;13.70;;
74074;SDS011;62428;51.412;5.432;2023-04-29T06:10:08;32.73;;;14.23;;
74074;SDS011;62428;51.412;5.432;2023-04-29T06:12:34;32.67;;;14.38;;
74074;SDS011;62428;51.412;5.432;2023-04-29T06:14:59;33.37;;;14.80;;
74074;SDS011;62428;51.412;5.432;2023-04-29T06:17:25;30.45;;;13.40;;
74074;SDS011;62428;51.412;5.432;2023-04-29T06:19:53;33.87;;;14.73;;
74074;SDS011;62428;51.412;5.432;2023-04-29T06:22:19;29.60;;;13.70;;
74074;SDS011;62428;51.412;5.432;2023-04-29T06:24:45;36.17;;;14.20;;
74074;SDS011;62428;51.412;5.432;2023-04-29T06:27:11;32.63;;;14.73;;
74074;SDS011;62428;51.412;5.432;2023-04-29T06:29:36;31.00;;;14.43;;
74074;SDS011;62428;51.412;5.432;2023-04-29T06:32:02;31.83;;;13.63;;
74074;SDS011;62428;51.412;5.432;2023-04-29T06:34:27;32.17;;;14.15;;
74074;SDS011;62428;51.412;5.432;2023-04-29T06:36:52;33.10;;;14.47;;
74074;SDS011;62428;51.412;5.432;2023-04-29T06:39:18;30.90;;;14.57;;
74074;SDS011;62428;51.412;5.432;2023-04-29T06:41:43;31.83;;;14.67;;
74074;SDS011;62428;51.412;5.432;2023-04-29T06:44:08;35.23;;;14.77;;
74074;SDS011;62428;51.412;5.432;2023-04-29T06:46:34;29.50;;;13.67;;
74074;SDS011;62428;51.412;5.432;2023-04-29T06:48:59;32.63;;;13.63;;
74074;SDS011;62428;51.412;5.432;2023-04-29T06:51:25;32.17;;;13.60;;
74074;SDS011;62428;51.412;5.432;2023-04-29T06:53:52;32.08;;;14.25;;
74074;SDS011;62428;51.412;5.432;2023-04-29T06:56:17;32.37;;;13.30;;
74074;SDS011;62428;51.412;5.432;2023-04-29T06:58:42;31.80;;;13.70;;
74074;SDS011;62428;51.412;5.432;2023-04-29T07:01:08;30.77;;;14.30;;
74074;SDS011;62428;51.412;5.432;2023-04-29T07:03:33;28.23;;;14.27;;
74074;SDS011;62428;51.412;5.432;2023-04-29T07:05:58;32.93;;;14.13;;
74074;SDS011;62428;51.412;5.432;2023-04-29T07:08:24;30.30;;;13.93;;
74074;SDS011;62428;51.412;5.432;2023-04-29T07:10:53;32.13;;;13.30;;
74074;SDS011;62428;51.412;5.432;2023-04-29T07:13:19;28.98;;;13.70;;
74074;SDS011;62428;51.412;5.432;2023-04-29T07:15:45;31.33;;;13.77;;
74074;SDS011;62428;51.412;5.432;2023-04-29T07:18:10;27.83;;;13.33;;
74074;SDS011;62428;51.412;5.432;2023-04-29T07:20:36;30.30;;;14.27;;
74074;SDS011;62428;51.412;5.432;2023-04-29T07:23:01;30.70;;;13.30;;
74074;SDS011;62428;51.412;5.432;2023-04-29T07:25:26;31.52;;;13.60;;
74074;SDS011;62428;51.412;5.432;2023-04-29T07:27:53;31.33;;;14.37;;
74074;SDS011;62428;51.412;5.432;2023-04-29T07:30:18;30.02;;;14.10;;
74074;SDS011;62428;51.412;5.432;2023-04-29T07:32:44;31.03;;;14.77;;
74074;SDS011;62428;51.412;5.432;2023-04-29T07:35:09;29.77;;;13.93;;
74074;SDS011;62428;51.412;5.432;2023-04-29T07:37:34;28.93;;;13.10;;
74074;SDS011;62428;51.412;5.432;2023-04-29T07:40:00;29.93;;;14.33;;
74074;SDS011;62428;51.412;5.432;2023-04-29T07:42:25;30.17;;;14.80;;
74074;SDS011;62428;51.412;5.432;2023-04-29T07:44:50;29.10;;;13.90;;
74074;SDS011;62428;51.412;5.432;2023-04-29T07:47:16;32.37;;;14.20;;
74074;SDS011;62428;51.412;5.432;2023-04-29T07:49:41;28.50;;;13.33;;
74074;SDS011;62428;51.412;5.432;2023-04-29T07:52:06;29.45;;;14.15;;
74074;SDS011;62428;51.412;5.432;2023-04-29T07:54:34;30.00;;;13.93;;
74074;SDS011;62428;51.412;5.432;2023-04-29T07:57:00;34.55;;;13.10;;
74074;SDS011;62428;51.412;5.432;2023-04-29T07:59:27;27.85;;;13.27;;
74074;SDS011;62428;51.412;5.432;2023-04-29T08:01:53;25.40;;;12.70;;
74074;SDS011;62428;51.412;5.432;2023-04-29T08:04:18;28.90;;;12.70;;
74074;SDS011;62428;51.412;5.432;2023-04-29T08:06:43;25.50;;;12.17;;
74074;SDS011;62428;51.412;5.432;2023-04-29T08:09:09;27.57;;;13.17;;
74074;SDS011;62428;51.412;5.432;2023-04-29T08:11:35;28.33;;;12.63;;
74074;SDS011;62428;51.412;5.432;2023-04-29T08:14:00;26.15;;;12.15;;
74074;SDS011;62428;51.412;5.432;2023-04-29T08:16:26;25.27;;;12.03;;
74074;SDS011;62428;51.412;5.432;2023-04-29T08:18:52;28.90;;;13.05;;
74074;SDS011;62428;51.412;5.432;2023-04-29T08:21:17;24.90;;;12.10;;
74074;SDS011;62428;51.412;5.432;2023-04-29T08:23:43;23.63;;;12.73;;
74074;SDS011;62428;51.412;5.432;2023-04-29T08:26:09;23.63;;;12.53;;
74074;SDS011;62428;51.412;5.432;2023-04-29T08:28:36;25.58;;;12.57;;
74074;SDS011;62428;51.412;5.432;2023-04-29T08:31:02;26.63;;;12.65;;
74074;SDS011;62428;51.412;5.432;2023-04-29T08:33:27;27.33;;;13.27;;
74074;SDS011;62428;51.412;5.432;2023-04-29T08:35:58;29.93;;;12.23;;
74074;SDS011;62428;51.412;5.432;2023-04-29T08:38:25;23.98;;;12.32;;
74074;SDS011;62428;51.412;5.432;2023-04-29T08:40:53;25.33;;;11.88;;
74074;SDS011;62428;51.412;5.432;2023-04-29T08:43:18;24.10;;;11.77;;
74074;SDS011;62428;51.412;5.432;2023-04-29T08:45:44;22.70;;;11.80;;
74074;SDS011;62428;51.412;5.432;2023-04-29T08:48:14;22.00;;;11.63;;
74074;SDS011;62428;51.412;5.432;2023-04-29T08:50:41;24.13;;;12.02;;
74074;SDS011;62428;51.412;5.432;2023-04-29T08:53:07;19.77;;;11.40;;
74074;SDS011;62428;51.412;5.432;2023-04-29T08:55:34;25.35;;;11.57;;
74074;SDS011;62428;51.412;5.432;2023-04-29T08:58:01;24.48;;;11.40;;
74074;SDS011;62428;51.412;5.432;2023-04-29T09:00:27;22.20;;;11.43;;
74074;SDS011;62428;51.412;5.432;2023-04-29T09:02:56;24.10;;;11.88;;
74074;SDS011;62428;51.412;5.432;2023-04-29T09:05:22;25.23;;;10.17;;
74074;SDS011;62428;51.412;5.432;2023-04-29T09:07:48;20.33;;;10.40;;
74074;SDS011;62428;51.412;5.432;2023-04-29T09:10:15;22.95;;;11.30;;
74074;SDS011;62428;51.412;5.432;2023-04-29T09:12:41;23.08;;;10.70;;
74074;SDS011;62428;51.412;5.432;2023-04-29T09:15:06;18.20;;;9.70;;
74074;SDS011;62428;51.412;5.432;2023-04-29T09:22:49;16.15;;;8.80;;
74074;SDS011;62428;51.412;5.432;2023-04-29T09:25:15;18.33;;;9.20;;
74074;SDS011;62428;51.412;5.432;2023-04-29T09:27:40;15.53;;;8.47;;
74074;SDS011;62428;51.412;5.432;2023-04-29T09:30:06;17.95;;;8.30;;
74074;SDS011;62428;51.412;5.432;2023-04-29T09:32:32;14.38;;;8.35;;
74074;SDS011;62428;51.412;5.432;2023-04-29T09:34:58;19.90;;;8.53;;
74074;SDS011;62428;51.412;5.432;2023-04-29T09:37:24;18.97;;;9.10;;
74074;SDS011;62428;51.412;5.432;2023-04-29T09:39:51;17.67;;;8.88;;
74074;SDS011;62428;51.412;5.432;2023-04-29T09:42:16;18.80;;;8.47;;
74074;SDS011;62428;51.412;5.432;2023-04-29T09:44:42;13.57;;;7.53;;
74074;SDS011;62428;51.412;5.432;2023-04-29T09:47:09;15.85;;;7.15;;
74074;SDS011;62428;51.412;5.432;2023-04-29T09:49:39;14.60;;;7.47;;
74074;SDS011;62428;51.412;5.432;2023-04-29T09:52:14;13.38;;;7.57;;
74074;SDS011;62428;51.412;5.432;2023-04-29T09:54:40;13.57;;;7.17;;
74074;SDS011;62428;51.412;5.432;2023-04-29T09:57:07;17.77;;;8.43;;
74074;SDS011;62428;51.412;5.432;2023-04-29T09:59:34;17.50;;;8.68;;
74074;SDS011;62428;51.412;5.432;2023-04-29T10:02:23;14.73;;;7.50;;
74074;SDS011;62428;51.412;5.432;2023-04-29T10:04:53;15.68;;;7.13;;
74074;SDS011;62428;51.412;5.432;2023-04-29T10:07:21;12.07;;;6.37;;
74074;SDS011;62428;51.412;5.432;2023-04-29T10:09:46;13.95;;;6.38;;
74074;SDS011;62428;51.412;5.432;2023-04-29T10:12:16;12.37;;;6.37;;
74074;SDS011;62428;51.412;5.432;2023-04-29T10:14:44;12.88;;;6.40;;
74074;SDS011;62428;51.412;5.432;2023-04-29T10:17:17;13.73;;;6.10;;
74074;SDS011;62428;51.412;5.432;2023-04-29T10:19:59;9.30;;;6.32;;
74074;SDS011;62428;51.412;5.432;2023-04-29T10:22:39;11.60;;;5.78;;
74074;SDS011;62428;51.412;5.432;2023-04-29T10:25:08;12.35;;;5.63;;
74074;SDS011;62428;51.412;5.432;2023-04-29T10:27:35;9.07;;;5.75;;
74074;SDS011;62428;51.412;5.432;2023-04-29T10:30:01;14.93;;;6.43;;
74074;SDS011;62428;51.412;5.432;2023-04-29T10:32:29;15.77;;;6.30;;
74074;SDS011;62428;51.412;5.432;2023-04-29T10:34:54;13.77;;;5.90;;
74074;SDS011;62428;51.412;5.432;2023-04-29T10:37:22;11.30;;;6.20;;
74074;SDS011;62428;51.412;5.432;2023-04-29T10:42:27;13.45;;;6.55;;
74074;SDS011;62428;51.412;5.432;2023-04-29T10:50:38;9.82;;;5.28;;
74074;SDS011;62428;51.412;5.432;2023-04-29T10:53:16;10.02;;;5.00;;
74074;SDS011;62428;51.412;5.432;2023-04-29T10:55:45;9.65;;;5.20;;
74074;SDS011;62428;51.412;5.432;2023-04-29T11:00:58;10.77;;;5.30;;
74074;SDS011;62428;51.412;5.432;2023-04-29T11:06:25;10.07;;;5.55;;
74074;SDS011;62428;51.412;5.432;2023-04-29T11:11:59;10.45;;;5.75;;
74074;SDS011;62428;51.412;5.432;2023-04-29T11:17:14;13.05;;;6.65;;
74074;SDS011;62428;51.412;5.432;2023-04-29T11:19:48;13.27;;;6.20;;
74074;SDS011;62428;51.412;5.432;2023-04-29T11:24:56;10.90;;;5.70;;
74074;SDS011;62428;51.412;5.432;2023-04-29T11:27:30;12.05;;;5.70;;
74074;SDS011;62428;51.412;5.432;2023-04-29T11:30:03;11.10;;;5.47;;
74074;SDS011;62428;51.412;5.432;2023-04-29T11:32:31;13.25;;;6.47;;
74074;SDS011;62428;51.412;5.432;2023-04-29T11:35:10;13.03;;;5.10;;
74074;SDS011;62428;51.412;5.432;2023-04-29T11:37:36;9.13;;;5.35;;
74074;SDS011;62428;51.412;5.432;2023-04-29T11:40:03;12.25;;;5.85;;
74074;SDS011;62428;51.412;5.432;2023-04-29T11:42:29;10.45;;;6.28;;
74074;SDS011;62428;51.412;5.432;2023-04-29T11:44:54;13.37;;;5.53;;
74074;SDS011;62428;51.412;5.432;2023-04-29T11:47:27;11.43;;;5.15;;
74074;SDS011;62428;51.412;5.432;2023-04-29T11:50:04;10.27;;;5.32;;
74074;SDS011;62428;51.412;5.432;2023-04-29T11:52:31;17.83;;;6.82;;
74074;SDS011;62428;51.412;5.432;2023-04-29T11:54:57;10.18;;;5.90;;
74074;SDS011;62428;51.412;5.432;2023-04-29T11:57:24;9.52;;;5.35;;
74074;SDS011;62428;51.412;5.432;2023-04-29T11:59:49;10.95;;;5.78;;
74074;SDS011;62428;51.412;5.432;2023-04-29T12:02:15;10.23;;;5.27;;
74074;SDS011;62428;51.412;5.432;2023-04-29T12:04:43;10.10;;;5.43;;
74074;SDS011;62428;51.412;5.432;2023-04-29T12:07:15;11.13;;;5.78;;
74074;SDS011;62428;51.412;5.432;2023-04-29T12:09:44;9.82;;;5.45;;
74074;SDS011;62428;51.412;5.432;2023-04-29T12:12:10;11.90;;;5.97;;
74074;SDS011;62428;51.412;5.432;2023-04-29T12:14:36;13.85;;;5.80;;
74074;SDS011;62428;51.412;5.432;2023-04-29T12:17:02;11.05;;;5.95;;
74074;SDS011;62428;51.412;5.432;2023-04-29T12:19:29;13.10;;;5.97;;
74074;SDS011;62428;51.412;5.432;2023-04-29T12:21:57;12.65;;;5.88;;
74074;SDS011;62428;51.412;5.432;2023-04-29T12:24:23;12.40;;;5.50;;
74074;SDS011;62428;51.412;5.432;2023-04-29T12:26:49;10.55;;;5.18;;
74074;SDS011;62428;51.412;5.432;2023-04-29T12:29:14;10.97;;;5.13;;
74074;SDS011;62428;51.412;5.432;2023-04-29T12:31:40;12.60;;;5.38;;
74074;SDS011;62428;51.412;5.432;2023-04-29T12:34:06;11.17;;;5.10;;
74074;SDS011;62428;51.412;5.432;2023-04-29T12:36:31;6.75;;;4.75;;
74074;SDS011;62428;51.412;5.432;2023-04-29T12:38:58;13.10;;;5.03;;
74074;SDS011;62428;51.412;5.432;2023-04-29T12:41:36;10.03;;;4.60;;
74074;SDS011;62428;51.412;5.432;2023-04-29T12:44:05;9.68;;;5.15;;
74074;SDS011;62428;51.412;5.432;2023-04-29T12:46:37;8.33;;;4.57;;
74074;SDS011;62428;51.412;5.432;2023-04-29T12:49:05;9.65;;;5.05;;
74074;SDS011;62428;51.412;5.432;2023-04-29T12:51:32;10.07;;;4.78;;
74074;SDS011;62428;51.412;5.432;2023-04-29T12:53:58;10.70;;;5.10;;
74074;SDS011;62428;51.412;5.432;2023-04-29T12:56:24;11.90;;;4.90;;
74074;SDS011;62428;51.412;5.432;2023-04-29T12:58:50;8.70;;;4.47;;
74074;SDS011;62428;51.412;5.432;2023-04-29T13:01:16;9.47;;;3.90;;
74074;SDS011;62428;51.412;5.432;2023-04-29T13:03:41;7.85;;;4.35;;
74074;SDS011;62428;51.412;5.432;2023-04-29T13:06:07;8.87;;;4.30;;
74074;SDS011;62428;51.412;5.432;2023-04-29T13:08:32;7.03;;;4.23;;
74074;SDS011;62428;51.412;5.432;2023-04-29T13:10:58;9.00;;;4.90;;
74074;SDS011;62428;51.412;5.432;2023-04-29T13:13:23;12.38;;;4.72;;
74074;SDS011;62428;51.412;5.432;2023-04-29T13:15:49;8.23;;;4.90;;
74074;SDS011;62428;51.412;5.432;2023-04-29T13:18:14;8.17;;;5.07;;
74074;SDS011;62428;51.412;5.432;2023-04-29T13:20:40;10.70;;;5.30;;
74074;SDS011;62428;51.412;5.432;2023-04-29T13:23:05;10.13;;;4.73;;
74074;SDS011;62428;51.412;5.432;2023-04-29T13:25:31;11.80;;;4.17;;
74074;SDS011;62428;51.412;5.432;2023-04-29T13:27:56;9.63;;;3.87;;
74074;SDS011;62428;51.412;5.432;2023-04-29T13:30:21;9.13;;;3.97;;
74074;SDS011;62428;51.412;5.432;2023-04-29T13:32:47;7.70;;;4.00;;
74074;SDS011;62428;51.412;5.432;2023-04-29T13:35:12;7.40;;;3.70;;
74074;SDS011;62428;51.412;5.432;2023-04-29T13:37:37;8.52;;;4.35;;
74074;SDS011;62428;51.412;5.432;2023-04-29T13:40:03;8.10;;;4.37;;
74074;SDS011;62428;51.412;5.432;2023-04-29T13:42:31;8.07;;;4.32;;
74074;SDS011;62428;51.412;5.432;2023-04-29T13:44:56;9.37;;;4.13;;
74074;SDS011;62428;51.412;5.432;2023-04-29T13:47:21;9.20;;;5.23;;
74074;SDS011;62428;51.412;5.432;2023-04-29T13:49:47;7.90;;;4.00;;
74074;SDS011;62428;51.412;5.432;2023-04-29T13:52:13;6.85;;;3.75;;
74074;SDS011;62428;51.412;5.432;2023-04-29T13:54:38;6.73;;;3.70;;
74074;SDS011;62428;51.412;5.432;2023-04-29T13:57:04;8.87;;;4.60;;
74074;SDS011;62428;51.412;5.432;2023-04-29T13:59:30;9.18;;;4.25;;
74074;SDS011;62428;51.412;5.432;2023-04-29T14:01:56;7.30;;;4.28;;
74074;SDS011;62428;51.412;5.432;2023-04-29T14:04:23;7.28;;;4.10;;
74074;SDS011;62428;51.412;5.432;2023-04-29T14:06:49;7.23;;;3.87;;
74074;SDS011;62428;51.412;5.432;2023-04-29T14:09:14;7.40;;;4.03;;
74074;SDS011;62428;51.412;5.432;2023-04-29T14:11:40;6.75;;;3.83;;
74074;SDS011;62428;51.412;5.432;2023-04-29T14:14:05;7.73;;;3.93;;
74074;SDS011;62428;51.412;5.432;2023-04-29T14:16:31;9.98;;;4.35;;
74074;SDS011;62428;51.412;5.432;2023-04-29T14:18:56;8.00;;;3.97;;
74074;SDS011;62428;51.412;5.432;2023-04-29T14:21:22;7.70;;;3.93;;
74074;SDS011;62428;51.412;5.432;2023-04-29T14:23:48;7.57;;;4.60;;
74074;SDS011;62428;51.412;5.432;2023-04-29T14:26:13;5.82;;;3.13;;
74074;SDS011;62428;51.412;5.432;2023-04-29T14:28:39;10.47;;;3.60;;
74074;SDS011;62428;51.412;5.432;2023-04-29T14:31:04;10.52;;;3.90;;
74074;SDS011;62428;51.412;5.432;2023-04-29T14:33:30;5.10;;;3.43;;
74074;SDS011;62428;51.412;5.432;2023-04-29T14:35:55;5.57;;;3.43;;
74074;SDS011;62428;51.412;5.432;2023-04-29T14:38:21;5.30;;;3.22;;
74074;SDS011;62428;51.412;5.432;2023-04-29T14:40:46;5.03;;;3.10;;
74074;SDS011;62428;51.412;5.432;2023-04-29T14:43:12;5.90;;;3.40;;
74074;SDS011;62428;51.412;5.432;2023-04-29T14:45:38;6.30;;;3.23;;
74074;SDS011;62428;51.412;5.432;2023-04-29T14:48:04;6.53;;;3.95;;
74074;SDS011;62428;51.412;5.432;2023-04-29T14:50:30;7.00;;;3.20;;
74074;SDS011;62428;51.412;5.432;2023-04-29T14:52:55;6.07;;;4.00;;
74074;SDS011;62428;51.412;5.432;2023-04-29T14:55:21;6.53;;;3.90;;
74074;SDS011;62428;51.412;5.432;2023-04-29T14:57:47;5.70;;;3.07;;
74074;SDS011;62428;51.412;5.432;2023-04-29T15:00:12;5.77;;;3.07;;
74074;SDS011;62428;51.412;5.432;2023-04-29T15:02:39;7.65;;;3.38;;
74074;SDS011;62428;51.412;5.432;2023-04-29T15:05:04;5.07;;;3.27;;
74074;SDS011;62428;51.412;5.432;2023-04-29T15:07:30;4.50;;;3.08;;
74074;SDS011;62428;51.412;5.432;2023-04-29T15:09:57;5.43;;;2.97;;